Anangel Destiny — SXON — position and weather

sailwx.info

Track history (hours):
 
Tides and Currents Weather Stations Pressure Air Temp Water Temp Dewpoint Dewpoint Depression Visibility Wind Speed Wind Dir Waves Ship Positions

Anangel Destiny

Last reported at 2017-Nov-03 08:37 UTC. Time now 2017-Nov-19 12:26 UTC.
Position N 31°55' E 120°53'.
Warning: this ship's position is 16 days out of date.

Length 289 m; draft 11.3 m.

Type: Cargo ship. MMSI: 239612000.

Date/timePositionNaut miles runAvg speedWind from/ knotsBaromVisibWave heightAir tempDewpointWater temp
2017-Nov-03 08:37N 31°55' E 120°53'1 5.0
2017-Nov-03 08:22N 31°54' E 120°53'710.4
2017-Nov-03 07:40N 31°47' E 120°57'210.6
2017-Nov-03 07:29N 31°47' E 120°59'612.0
2017-Nov-03 07:00N 31°45' E 121°05'510.7
2017-Nov-03 06:30N 31°41' E 121°10'510.9
2017-Nov-03 06:00N 31°38' E 121°15'713.2
2017-Nov-03 05:30N 31°33' E 121°20'611.5
2017-Nov-03 05:00N 31°30' E 121°26'510.5
2017-Nov-03 04:30N 31°26' E 121°30'5 9.5
2017-Nov-03 04:00N 31°24' E 121°34'510.4
2017-Nov-03 03:30N 31°21' E 121°40'4 8.5
2017-Nov-03 03:01N 31°19' E 121°44'4 8.5
2017-Nov-03 02:30N 31°17' E 121°49'5 9.7
2017-Nov-03 02:00N 31°16' E 121°54'612.2
2017-Nov-03 01:30N 31°15' E 122°01'612.3
2017-Nov-03 01:00N 31°13' E 122°08'612.6
2017-Nov-03 00:30N 31°09' E 122°14'510.6
2017-Nov-03 00:00N 31°06' E 122°19'510.1
2017-Nov-02 23:30N 31°07' E 122°25'4 7.0
2017-Nov-02 23:00N 31°08' E 122°29'1 1.9
2017-Nov-02 22:30N 31°09' E 122°30'2 4.1
2017-Nov-02 22:00N 31°11' E 122°31'3 6.5
2017-Nov-02 21:30N 31°14' E 122°33'3 5.5
2017-Nov-02 21:00N 31°15' E 122°35'3 6.4
2017-Nov-02 20:30N 31°16' E 122°39'3 3.1
2017-Nov-02 19:39N 31°17' E 122°42'0 0.1
2017-Nov-02 19:12N 31°17' E 122°42'0 0.1
2017-Nov-02 18:48N 31°17' E 122°42'0 0.0
2017-Nov-02 18:24N 31°17' E 122°42'0 0.1
2017-Nov-02 18:00N 31°17' E 122°42'0 0.1
2017-Nov-02 17:30N 31°17' E 122°42'0 0.1
2017-Nov-02 16:54N 31°17' E 122°42'0 0.1
2017-Nov-02 16:30N 31°17' E 122°42'0 0.1
2017-Nov-02 15:54N 31°17' E 122°42'0 0.1
2017-Nov-02 15:30N 31°17' E 122°42'0 0.1
2017-Nov-02 12:42N 31°17' E 122°41'0 0.0
2017-Nov-02 12:24N 31°17' E 122°41'0 0.0
2017-Nov-01 20:21N 31°17' E 122°42'  
2017-Oct-30 03:35N 31°15' E 122°43'2 4.0
2017-Oct-30 03:06N 31°14' E 122°45'0 2.5
2017-Oct-30 03:00N 31°14' E 122°45'2 3.4
2017-Oct-30 02:24N 31°12' E 122°46'  
2017-Oct-27 20:06N 31°15' E 122°39'0 0.3
2017-Oct-27 19:57N 31°15' E 122°39'0 0.0
2017-Oct-27 19:06N 31°15' E 122°39'0 0.0
2017-Oct-27 19:00N 31°15' E 122°39'0 0.1
2017-Oct-27 18:18N 31°15' E 122°39'0 0.0
2017-Oct-27 15:06N 31°15' E 122°40'0 0.0
2017-Oct-26 20:24N 31°15' E 122°40'0 0.1
2017-Oct-26 19:57N 31°15' E 122°40'0 0.1
2017-Oct-26 19:09N 31°15' E 122°40'0 0.1
2017-Oct-26 14:33N 31°15' E 122°40'0 0.1
2017-Oct-26 13:02N 31°15' E 122°40'0 0.0
2017-Oct-26 12:59N 31°15' E 122°40'0 0.0
2017-Oct-26 00:01N 31°15' E 122°40'0 2.0
2017-Oct-25 23:58N 31°15' E 122°40'2 3.7
2017-Oct-25 23:24N 31°16' E 122°42'3 5.1
2017-Oct-25 22:48N 31°17' E 122°45'3 6.8
2017-Oct-25 22:23N 31°19' E 122°48'2 6.0
2017-Oct-25 22:00N 31°20' E 122°50'3 5.5
2017-Oct-25 21:27N 31°22' E 122°53'1511.1
2017-Oct-25 20:08N 31°30' E 123°07'110.1
2017-Oct-25 20:00N 31°30' E 123°09'4 8.5
2017-Oct-25 19:30N 31°31' E 123°13'2111.6
2017-Oct-25 17:43N 31°52' E 123°13'511.5
2017-Oct-25 17:17N 31°57' E 123°13'411.5
2017-Oct-25 16:56N 32°01' E 123°13'248 9.4
2017-Oct-24 14:28N 34°44' E 119°30'  
Track history (hours):
 
Tides and Currents Weather Stations Pressure Air Temp Water Temp Dewpoint Dewpoint Depression Visibility Wind Speed Wind Dir Waves Ship Positions

Anangel Destiny

Last reported at 2017-Nov-03 08:37 UTC. Time now 2017-Nov-19 12:26 UTC.
Position N 31°55' E 120°53'.
Warning: this ship's position is 16 days out of date.

Length 289 m; draft 11.3 m.

Type: Cargo ship. MMSI: 239612000.

Date/timePositionNaut miles runAvg speedWind from/ knotsBaromVisibWave heightAir tempDewpointWater temp
2017-Nov-03 08:37N 31°55' E 120°53'1 5.0
2017-Nov-03 08:22N 31°54' E 120°53'710.4
2017-Nov-03 07:40N 31°47' E 120°57'210.6
2017-Nov-03 07:29N 31°47' E 120°59'612.0
2017-Nov-03 07:00N 31°45' E 121°05'510.7
2017-Nov-03 06:30N 31°41' E 121°10'510.9
2017-Nov-03 06:00N 31°38' E 121°15'713.2
2017-Nov-03 05:30N 31°33' E 121°20'611.5
2017-Nov-03 05:00N 31°30' E 121°26'510.5
2017-Nov-03 04:30N 31°26' E 121°30'5 9.5
2017-Nov-03 04:00N 31°24' E 121°34'510.4
2017-Nov-03 03:30N 31°21' E 121°40'4 8.5
2017-Nov-03 03:01N 31°19' E 121°44'4 8.5
2017-Nov-03 02:30N 31°17' E 121°49'5 9.7
2017-Nov-03 02:00N 31°16' E 121°54'612.2
2017-Nov-03 01:30N 31°15' E 122°01'612.3
2017-Nov-03 01:00N 31°13' E 122°08'612.6
2017-Nov-03 00:30N 31°09' E 122°14'510.6
2017-Nov-03 00:00N 31°06' E 122°19'510.1
2017-Nov-02 23:30N 31°07' E 122°25'4 7.0
2017-Nov-02 23:00N 31°08' E 122°29'1 1.9
2017-Nov-02 22:30N 31°09' E 122°30'2 4.1
2017-Nov-02 22:00N 31°11' E 122°31'3 6.5
2017-Nov-02 21:30N 31°14' E 122°33'3 5.5
2017-Nov-02 21:00N 31°15' E 122°35'3 6.4
2017-Nov-02 20:30N 31°16' E 122°39'3 3.1
2017-Nov-02 19:39N 31°17' E 122°42'0 0.1
2017-Nov-02 19:12N 31°17' E 122°42'0 0.1
2017-Nov-02 18:48N 31°17' E 122°42'0 0.0
2017-Nov-02 18:24N 31°17' E 122°42'0 0.1
2017-Nov-02 18:00N 31°17' E 122°42'0 0.1
2017-Nov-02 17:30N 31°17' E 122°42'0 0.1
2017-Nov-02 16:54N 31°17' E 122°42'0 0.1
2017-Nov-02 16:30N 31°17' E 122°42'0 0.1
2017-Nov-02 15:54N 31°17' E 122°42'0 0.1
2017-Nov-02 15:30N 31°17' E 122°42'0 0.1
2017-Nov-02 12:42N 31°17' E 122°41'0 0.0
2017-Nov-02 12:24N 31°17' E 122°41'0 0.0
2017-Nov-01 20:21N 31°17' E 122°42'  
2017-Oct-30 03:35N 31°15' E 122°43'2 4.0
2017-Oct-30 03:06N 31°14' E 122°45'0 2.5
2017-Oct-30 03:00N 31°14' E 122°45'2 3.4
2017-Oct-30 02:24N 31°12' E 122°46'  
2017-Oct-27 20:06N 31°15' E 122°39'0 0.3
2017-Oct-27 19:57N 31°15' E 122°39'0 0.0
2017-Oct-27 19:06N 31°15' E 122°39'0 0.0
2017-Oct-27 19:00N 31°15' E 122°39'0 0.1
2017-Oct-27 18:18N 31°15' E 122°39'0 0.0
2017-Oct-27 15:06N 31°15' E 122°40'0 0.0
2017-Oct-26 20:24N 31°15' E 122°40'0 0.1
2017-Oct-26 19:57N 31°15' E 122°40'0 0.1
2017-Oct-26 19:09N 31°15' E 122°40'0 0.1
2017-Oct-26 14:33N 31°15' E 122°40'0 0.1
2017-Oct-26 13:02N 31°15' E 122°40'0 0.0
2017-Oct-26 12:59N 31°15' E 122°40'0 0.0
2017-Oct-26 00:01N 31°15' E 122°40'0 2.0
2017-Oct-25 23:58N 31°15' E 122°40'2 3.7
2017-Oct-25 23:24N 31°16' E 122°42'3 5.1
2017-Oct-25 22:48N 31°17' E 122°45'3 6.8
2017-Oct-25 22:23N 31°19' E 122°48'2 6.0
2017-Oct-25 22:00N 31°20' E 122°50'3 5.5
2017-Oct-25 21:27N 31°22' E 122°53'1511.1
2017-Oct-25 20:08N 31°30' E 123°07'110.1
2017-Oct-25 20:00N 31°30' E 123°09'4 8.5
2017-Oct-25 19:30N 31°31' E 123°13'2111.6
2017-Oct-25 17:43N 31°52' E 123°13'511.5
2017-Oct-25 17:17N 31°57' E 123°13'411.5
2017-Oct-25 16:56N 32°01' E 123°13'248 9.4
2017-Oct-24 14:28N 34°44' E 119°30'  

Dump ship's entire track history